M V Trinidad — LAIY4 — position and weather

sailwx.info

Track history (hours):
 
Tides and Currents Weather Stations Pressure Air Temp Water Temp Dewpoint Dewpoint Depression Visibility Wind Speed Wind Dir Waves Ship Positions

M V Trinidad

Last reported at 2014-Dec-27 03:32 UTC. Time now 2015-Jan-30 14:06 UTC.
Position N 32°19' W 117°48'.
Warning: this ship's position is 34 days out of date.

Length 189 m; draft 8.8 m.

Type: Cargo ship. MMSI: 257425411.

Date/timePositionNaut miles runAvg speedWind from/ knotsBaromVisibWave heightAir tempDewpointWater temp
2014-Dec-27 03:32N 32°19' W 117°48'1414.3
2014-Dec-27 02:33N 32°26' W 117°34'1514.6
2014-Dec-27 01:31N 32°34' W 117°18'1111.4
2014-Dec-27 00:33N 32°43' W 117°12'6 5.7
2014-Dec-26 23:34N 32°39' W 117°07'0 0.0
2014-Dec-26 22:32N 32°39' W 117°07'0 0.0
2014-Dec-26 21:32N 32°39' W 117°07'0 0.0
2014-Dec-26 20:32N 32°39' W 117°07'0 0.0
2014-Dec-26 19:32N 32°39' W 117°07'0 0.0
2014-Dec-26 18:32N 32°39' W 117°07'0 0.0
2014-Dec-26 17:32N 32°39' W 117°07'0 0.0
2014-Dec-26 16:32N 32°39' W 117°07'0 0.0
2014-Dec-26 15:32N 32°39' W 117°07'0 0.1
2014-Dec-26 14:33N 32°39' W 117°07'6 6.0
2014-Dec-26 13:33N 32°43' W 117°13'8 7.6
2014-Dec-26 12:33N 32°36' W 117°17'1111.1
2014-Dec-26 11:33N 32°32' W 117°30'5 5.2
2014-Dec-26 10:33N 32°31' W 117°36'1 1.1
2014-Dec-26 09:33N 32°32' W 117°36'1 0.9
2014-Dec-26 08:33N 32°32' W 117°38'1 1.5
2014-Dec-26 07:33N 32°32' W 117°39'2 1.5
2014-Dec-26 06:33N 32°32' W 117°41'2 1.7
2014-Dec-26 05:33N 32°32' W 117°43'1 1.5
2014-Dec-26 04:33N 32°34' W 117°43'1010.3
2014-Dec-26 03:33N 32°39' W 117°33'1 1.3
2014-Dec-26 02:33N 32°39' W 117°35'2 1.6
2014-Dec-26 01:33N 32°40' W 117°36'1 1.2
2014-Dec-26 00:33N 32°40' W 117°38'1 1.1
2014-Dec-25 23:33N 32°40' W 117°39'1 1.1
2014-Dec-25 22:33N 32°40' W 117°40'1 1.2
2014-Dec-25 21:33N 32°39' W 117°42'1 1.4
2014-Dec-25 20:33N 32°39' W 117°43'1 1.3
2014-Dec-25 19:33N 32°39' W 117°45'8 8.4
2014-Dec-25 18:33N 32°31' W 117°41'1111.2
2014-Dec-25 17:33N 32°21' W 117°37'6 6.3
2014-Dec-25 16:33N 32°15' W 117°35'1 1.4
2014-Dec-25 15:33N 32°16' W 117°36'2 1.9
2014-Dec-25 14:33N 32°18' W 117°36'2 2.2
2014-Dec-25 13:33N 32°20' W 117°37'2 2.0
2014-Dec-25 12:33N 32°22' W 117°38'2 2.3
2014-Dec-25 11:33N 32°24' W 117°39'3 2.8
2014-Dec-25 10:33N 32°27' W 117°39'2 1.9
2014-Dec-25 09:33N 32°29' W 117°40'1 1.5
2014-Dec-25 08:33N 32°30' W 117°41'1 1.2
2014-Dec-25 07:33N 32°31' W 117°41'2 1.7
2014-Dec-25 06:33N 32°33' W 117°42'2 1.8
2014-Dec-25 05:33N 32°34' W 117°43'1 1.3
2014-Dec-25 04:33N 32°35' W 117°44'1 1.1
2014-Dec-25 03:33N 32°36' W 117°44'1 0.9
2014-Dec-25 02:33N 32°36' W 117°45'0 0.5
2014-Dec-25 01:33N 32°36' W 117°46'4 4.0
2014-Dec-25 00:34N 32°35' W 117°41'0 0.1
2014-Dec-24 23:33N 32°35' W 117°41'1 0.7
2014-Dec-24 22:33N 32°35' W 117°42'1 0.6
2014-Dec-24 21:33N 32°35' W 117°43'1 0.5
2014-Dec-24 20:33N 32°35' W 117°43'0 0.5
2014-Dec-24 19:33N 32°36' W 117°44'0 0.4
2014-Dec-24 18:33N 32°36' W 117°44'0 0.1
2014-Dec-24 17:33N 32°36' W 117°44'0 0.2
2014-Dec-24 16:33N 32°36' W 117°44'0 0.4
2014-Dec-24 15:33N 32°36' W 117°44'1 0.5
2014-Dec-24 14:33N 32°37' W 117°45'0 0.5
2014-Dec-24 13:33N 32°37' W 117°45'0 0.4
2014-Dec-24 12:33N 32°38' W 117°45'0 0.4
2014-Dec-24 11:33N 32°37' W 117°45'1 0.9
2014-Dec-24 10:33N 32°36' W 117°45'1 1.5
2014-Dec-24 09:34N 32°35' W 117°45'1413.5
2014-Dec-24 08:33N 32°45' W 117°56'1414.2
2014-Dec-24 07:33N 32°54' W 118°08'1514.7
2014-Dec-24 06:33N 33°04' W 118°21'1514.6
2014-Dec-24 05:33N 33°14' W 118°34'1514.5
2014-Dec-24 04:32N 33°26' W 118°45'1414.1
2014-Dec-24 03:34N 33°38' W 118°53'35 1.8
2014-Dec-23 08:30N 34°09' W 119°12'0 0.0
2014-Dec-23 07:33N 34°09' W 119°12'0 0.0
2014-Dec-23 06:33N 34°09' W 119°12'0 0.0
2014-Dec-23 05:33N 34°09' W 119°12'0 0.0
2014-Dec-23 02:33N 34°09' W 119°12'0 0.0
2014-Dec-22 22:30N 34°09' W 119°12'61 3.8
2014-Dec-22 06:15N 34°18' W 120°26'2313.4
2014-Dec-22 04:33N 34°24' W 120°52'9 8.1
2014-Dec-22 03:29N 34°25' W 121°03'3 2.4
2014-Dec-22 02:19N 34°27' W 121°05'  
Track history (hours):
 
Tides and Currents Weather Stations Pressure Air Temp Water Temp Dewpoint Dewpoint Depression Visibility Wind Speed Wind Dir Waves Ship Positions

M V Trinidad

Last reported at 2014-Dec-27 03:32 UTC. Time now 2015-Jan-30 14:06 UTC.
Position N 32°19' W 117°48'.
Warning: this ship's position is 34 days out of date.

Length 189 m; draft 8.8 m.

Type: Cargo ship. MMSI: 257425411.

Date/timePositionNaut miles runAvg speedWind from/ knotsBaromVisibWave heightAir tempDewpointWater temp
2014-Dec-27 03:32N 32°19' W 117°48'1414.3
2014-Dec-27 02:33N 32°26' W 117°34'1514.6
2014-Dec-27 01:31N 32°34' W 117°18'1111.4
2014-Dec-27 00:33N 32°43' W 117°12'6 5.7
2014-Dec-26 23:34N 32°39' W 117°07'0 0.0
2014-Dec-26 22:32N 32°39' W 117°07'0 0.0
2014-Dec-26 21:32N 32°39' W 117°07'0 0.0
2014-Dec-26 20:32N 32°39' W 117°07'0 0.0
2014-Dec-26 19:32N 32°39' W 117°07'0 0.0
2014-Dec-26 18:32N 32°39' W 117°07'0 0.0
2014-Dec-26 17:32N 32°39' W 117°07'0 0.0
2014-Dec-26 16:32N 32°39' W 117°07'0 0.0
2014-Dec-26 15:32N 32°39' W 117°07'0 0.1
2014-Dec-26 14:33N 32°39' W 117°07'6 6.0
2014-Dec-26 13:33N 32°43' W 117°13'8 7.6
2014-Dec-26 12:33N 32°36' W 117°17'1111.1
2014-Dec-26 11:33N 32°32' W 117°30'5 5.2
2014-Dec-26 10:33N 32°31' W 117°36'1 1.1
2014-Dec-26 09:33N 32°32' W 117°36'1 0.9
2014-Dec-26 08:33N 32°32' W 117°38'1 1.5
2014-Dec-26 07:33N 32°32' W 117°39'2 1.5
2014-Dec-26 06:33N 32°32' W 117°41'2 1.7
2014-Dec-26 05:33N 32°32' W 117°43'1 1.5
2014-Dec-26 04:33N 32°34' W 117°43'1010.3
2014-Dec-26 03:33N 32°39' W 117°33'1 1.3
2014-Dec-26 02:33N 32°39' W 117°35'2 1.6
2014-Dec-26 01:33N 32°40' W 117°36'1 1.2
2014-Dec-26 00:33N 32°40' W 117°38'1 1.1
2014-Dec-25 23:33N 32°40' W 117°39'1 1.1
2014-Dec-25 22:33N 32°40' W 117°40'1 1.2
2014-Dec-25 21:33N 32°39' W 117°42'1 1.4
2014-Dec-25 20:33N 32°39' W 117°43'1 1.3
2014-Dec-25 19:33N 32°39' W 117°45'8 8.4
2014-Dec-25 18:33N 32°31' W 117°41'1111.2
2014-Dec-25 17:33N 32°21' W 117°37'6 6.3
2014-Dec-25 16:33N 32°15' W 117°35'1 1.4
2014-Dec-25 15:33N 32°16' W 117°36'2 1.9
2014-Dec-25 14:33N 32°18' W 117°36'2 2.2
2014-Dec-25 13:33N 32°20' W 117°37'2 2.0
2014-Dec-25 12:33N 32°22' W 117°38'2 2.3
2014-Dec-25 11:33N 32°24' W 117°39'3 2.8
2014-Dec-25 10:33N 32°27' W 117°39'2 1.9
2014-Dec-25 09:33N 32°29' W 117°40'1 1.5
2014-Dec-25 08:33N 32°30' W 117°41'1 1.2
2014-Dec-25 07:33N 32°31' W 117°41'2 1.7
2014-Dec-25 06:33N 32°33' W 117°42'2 1.8
2014-Dec-25 05:33N 32°34' W 117°43'1 1.3
2014-Dec-25 04:33N 32°35' W 117°44'1 1.1
2014-Dec-25 03:33N 32°36' W 117°44'1 0.9
2014-Dec-25 02:33N 32°36' W 117°45'0 0.5
2014-Dec-25 01:33N 32°36' W 117°46'4 4.0
2014-Dec-25 00:34N 32°35' W 117°41'0 0.1
2014-Dec-24 23:33N 32°35' W 117°41'1 0.7
2014-Dec-24 22:33N 32°35' W 117°42'1 0.6
2014-Dec-24 21:33N 32°35' W 117°43'1 0.5
2014-Dec-24 20:33N 32°35' W 117°43'0 0.5
2014-Dec-24 19:33N 32°36' W 117°44'0 0.4
2014-Dec-24 18:33N 32°36' W 117°44'0 0.1
2014-Dec-24 17:33N 32°36' W 117°44'0 0.2
2014-Dec-24 16:33N 32°36' W 117°44'0 0.4
2014-Dec-24 15:33N 32°36' W 117°44'1 0.5
2014-Dec-24 14:33N 32°37' W 117°45'0 0.5
2014-Dec-24 13:33N 32°37' W 117°45'0 0.4
2014-Dec-24 12:33N 32°38' W 117°45'0 0.4
2014-Dec-24 11:33N 32°37' W 117°45'1 0.9
2014-Dec-24 10:33N 32°36' W 117°45'1 1.5
2014-Dec-24 09:34N 32°35' W 117°45'1413.5
2014-Dec-24 08:33N 32°45' W 117°56'1414.2
2014-Dec-24 07:33N 32°54' W 118°08'1514.7
2014-Dec-24 06:33N 33°04' W 118°21'1514.6
2014-Dec-24 05:33N 33°14' W 118°34'1514.5
2014-Dec-24 04:32N 33°26' W 118°45'1414.1
2014-Dec-24 03:34N 33°38' W 118°53'35 1.8
2014-Dec-23 08:30N 34°09' W 119°12'0 0.0
2014-Dec-23 07:33N 34°09' W 119°12'0 0.0
2014-Dec-23 06:33N 34°09' W 119°12'0 0.0
2014-Dec-23 05:33N 34°09' W 119°12'0 0.0
2014-Dec-23 02:33N 34°09' W 119°12'0 0.0
2014-Dec-22 22:30N 34°09' W 119°12'61 3.8
2014-Dec-22 06:15N 34°18' W 120°26'2313.4
2014-Dec-22 04:33N 34°24' W 120°52'9 8.1
2014-Dec-22 03:29N 34°25' W 121°03'3 2.4
2014-Dec-22 02:19N 34°27' W 121°05'  

Dump ship's entire track history